Time;durP1;ratioP1;P1;durP2;ratioP2;P2;SDS_P1;SDS_P2;PMS_P1;PMS_P2;Temp;Humidity;BMP_temperature;BMP_pressure;BME280_temperature;BME280_humidity;BME280_pressure;Samples;Min_cycle;Max_cycle;Signal;HPM_P1;HPM_P2
2023/06/24 00:00:18;;;;;;;;;;;22.00;94.90;22.00;100137.00;;;;337922;28;82423;-96
2023/06/24 00:00:30;;;;;;;;;;;22.00;94.90;21.90;100145.00;;;;337668;28;95385;-94
2023/06/24 00:00:43;;;;;;;;;;;22.00;94.90;21.90;100143.00;;;;339817;28;82542;-94
2023/06/24 00:00:56;;;;;;;;;;;22.00;95.00;21.90;100137.00;;;;340457;28;94242;-95
2023/06/24 00:01:09;;;;;;;;;;;22.00;94.90;21.90;100134.00;;;;340984;28;82524;-95
2023/06/24 00:01:22;;;;;;;;;;;22.00;95.00;21.90;100134.00;;;;340100;28;93520;-94
2023/06/24 00:01:34;;;;;;;;;;;22.00;95.00;21.90;100135.00;;;;342575;28;82641;-94
2023/06/24 00:01:46;;;;;;;;;;;21.90;95.00;21.90;100141.00;;;;340279;28;94157;-95
2023/06/24 00:01:59;;;;;;;;;;;21.90;95.00;21.90;100142.00;;;;339923;28;82405;-95
2023/06/24 00:02:11;;;;;;;;;;;21.90;95.00;21.90;100141.00;;;;340214;28;93710;-94
2023/06/24 00:02:29;;;;;;;;;;;21.90;94.90;21.90;100142.00;;;;341001;28;82472;-95
2023/06/24 00:02:45;;;;;;;;;;;21.90;95.00;22.00;100136.00;;;;342538;28;94601;-95
2023/06/24 00:03:00;;;;;;;;;;;21.90;95.00;22.00;100143.00;;;;342546;28;82489;-95
2023/06/24 00:03:16;;;;;;;;;;;21.90;95.00;22.00;100143.00;;;;343097;28;93049;-93
2023/06/24 00:03:29;;;;;;;;;;;21.90;95.00;21.90;100143.00;;;;342783;28;82679;-93
2023/06/24 00:03:55;;;;;;;;;;;21.90;95.00;21.90;100153.00;;;;338130;28;94280;-94
2023/06/24 00:04:07;;;;;;;;;;;21.90;95.00;22.00;100141.00;;;;342580;28;82487;-95
2023/06/24 00:04:20;;;;;;;;;;;21.90;95.30;22.00;100145.00;;;;339350;28;92277;-95
2023/06/24 00:04:32;;;;;;;;;;;21.90;95.10;22.00;100146.00;;;;340137;28;82602;-94
2023/06/24 00:04:45;;;;;;;;;;;21.90;95.00;22.00;100150.00;;;;340478;28;94672;-94
2023/06/24 00:05:00;;;;;;;;;;;21.90;95.00;21.90;100144.00;;;;341442;28;82622;-93
2023/06/24 00:05:12;;;;;;;;;;;21.90;95.00;21.90;100136.00;;;;340637;28;96325;-95
2023/06/24 00:05:24;;;;;;;;;;;21.90;95.00;21.90;100142.00;;;;341060;28;82506;-94
2023/06/24 00:05:38;;;;;;;;;;;21.90;95.10;22.00;100133.00;;;;339341;28;94031;-94
2023/06/24 00:05:56;;;;;;;;;;;21.90;95.10;21.90;100144.00;;;;340312;28;82528;-94
2023/06/24 00:06:10;;;;;;;;;;;21.90;95.00;22.00;100138.00;;;;340552;28;94017;-95
2023/06/24 00:06:25;;;;;;;;;;;21.90;95.10;22.00;100153.00;;;;342773;28;82550;-94
2023/06/24 00:06:39;;;;;;;;;;;21.90;95.20;22.00;100140.00;;;;340597;28;92302;-94
2023/06/24 00:06:52;;;;;;;;;;;21.90;95.10;22.00;100136.00;;;;341307;28;82617;-94
2023/06/24 00:07:05;;;;;;;;;;;22.00;95.10;22.00;100141.00;;;;340557;28;94334;-94
2023/06/24 00:07:17;;;;;;;;;;;21.90;95.10;22.00;100129.00;;;;341422;28;82429;-95
2023/06/24 00:07:30;;;;;;;;;;;21.90;95.10;22.00;100138.00;;;;343351;28;92313;-94
2023/06/24 00:07:45;;;;;;;;;;;21.90;95.10;21.90;100144.00;;;;342693;28;82644;-94
2023/06/24 00:08:01;;;;;;;;;;;21.90;95.10;22.00;100144.00;;;;339022;28;95069;-95
2023/06/24 00:08:15;;;;;;;;;;;21.90;95.00;22.00;100144.00;;;;339532;28;82753;-95
2023/06/24 00:08:34;;;;;;;;;;;21.90;95.10;22.00;100141.00;;;;340237;28;94484;-94
2023/06/24 00:08:46;;;;;;;;;;;21.90;95.20;22.00;100143.00;;;;340869;28;82621;-94
2023/06/24 00:09:02;;;;;;;;;;;21.90;95.10;21.90;100138.00;;;;338895;28;93414;-94
2023/06/24 00:09:14;;;;;;;;;;;21.90;95.00;21.90;100133.00;;;;340599;28;82600;-94
2023/06/24 00:09:30;;;;;;;;;;;21.90;95.10;21.90;100136.00;;;;341341;28;94312;-95
2023/06/24 00:09:41;;;;;;;;;;;21.90;95.10;22.00;100138.00;;;;342221;28;82557;-95
2023/06/24 00:09:54;;;;;;;;;;;21.90;95.00;21.90;100141.00;;;;341315;28;95350;-95
2023/06/24 00:10:07;;;;;;;;;;;21.90;95.10;21.90;100142.00;;;;340975;28;82561;-96
2023/06/24 00:10:21;;;;;;;;;;;21.90;95.10;21.90;100127.00;;;;339004;28;93254;-95
2023/06/24 00:10:33;;;;;;;;;;;21.90;95.10;21.90;100135.00;;;;340663;28;82680;-95
2023/06/24 00:10:46;;;;;;;;;;;21.90;95.10;21.90;100132.00;;;;340275;28;92402;-95
2023/06/24 00:10:58;;;;;;;;;;;21.90;95.10;21.90;100135.00;;;;341955;28;82569;-95
2023/06/24 00:11:12;;;;;;;;;;;21.90;95.20;21.90;100134.00;;;;340180;28;92358;-94
2023/06/24 00:11:25;;;;;;;;;;;21.90;95.20;21.90;100137.00;;;;340846;28;82609;-94
2023/06/24 00:11:37;;;;;;;;;;;21.90;95.40;21.90;100136.00;;;;338640;28;93416;-94
2023/06/24 00:11:49;;;;;;;;;;;21.90;95.10;21.90;100132.00;;;;341024;28;82655;-94
2023/06/24 00:12:02;;;;;;;;;;;21.90;95.10;21.80;100133.00;;;;340298;28;94346;-94
2023/06/24 00:12:18;;;;;;;;;;;21.90;95.20;21.80;100135.00;;;;338435;28;82355;-95
2023/06/24 00:12:32;;;;;;;;;;;21.90;95.20;21.90;100132.00;;;;340046;28;94174;-95
2023/06/24 00:12:45;;;;;;;;;;;21.90;95.20;21.90;100130.00;;;;339756;28;82590;-94
2023/06/24 00:13:01;;;;;;;;;;;21.90;95.50;21.90;100131.00;;;;341489;28;94072;-95
2023/06/24 00:13:16;;;;;;;;;;;21.90;95.20;21.90;100123.00;;;;342326;28;82504;-95
2023/06/24 00:13:31;;;;;;;;;;;21.90;95.20;21.90;100133.00;;;;340331;28;92086;-95
2023/06/24 00:13:43;;;;;;;;;;;21.90;95.20;21.80;100129.00;;;;339736;28;82639;-95
2023/06/24 00:13:55;;;;;;;;;;;21.90;95.20;21.90;100134.00;;;;338840;28;95528;-95
2023/06/24 00:14:10;;;;;;;;;;;21.90;95.20;21.90;100136.00;;;;342814;28;82542;-95
2023/06/24 00:14:26;;;;;;;;;;;21.90;95.20;21.90;100133.00;;;;338923;28;94777;-95
2023/06/24 00:14:38;;;;;;;;;;;21.90;95.20;21.90;100129.00;;;;340925;28;82484;-94
2023/06/24 00:14:50;;;;;;;;;;;21.90;95.20;21.90;100131.00;;;;338824;28;93122;-95
2023/06/24 00:15:03;;;;;;;;;;;21.90;95.30;21.90;100137.00;;;;341055;28;82577;-96
2023/06/24 00:15:15;;;;;;;;;;;21.90;95.30;21.80;100128.00;;;;341709;28;95226;-94
2023/06/24 00:15:29;;;;;;;;;;;21.90;95.40;21.90;100131.00;;;;339918;28;82543;-95
2023/06/24 00:15:42;;;;;;;;;;;21.90;95.30;21.80;100127.00;;;;340213;28;92229;-95
2023/06/24 00:15:55;;;;;;;;;;;21.90;95.30;21.70;100131.00;;;;339529;28;82600;-95
2023/06/24 00:16:07;;;;;;;;;;;21.90;95.40;21.80;100126.00;;;;338878;28;94142;-94
2023/06/24 00:16:26;;;;;;;;;;;21.90;95.40;21.80;100133.00;;;;342289;28;82589;-95
2023/06/24 00:16:43;;;;;;;;;;;21.90;95.40;21.80;100129.00;;;;340080;28;94651;-94
2023/06/24 00:16:57;;;;;;;;;;;21.80;95.40;21.80;100131.00;;;;339486;28;82624;-95
2023/06/24 00:17:11;;;;;;;;;;;21.80;95.40;21.80;100121.00;;;;339847;28;95010;-96
2023/06/24 00:17:23;;;;;;;;;;;21.80;95.40;21.80;100135.00;;;;340884;28;82500;-95
2023/06/24 00:17:36;;;;;;;;;;;21.80;95.30;21.80;100124.00;;;;339085;28;94353;-96
2023/06/24 00:17:50;;;;;;;;;;;21.80;95.30;21.80;100128.00;;;;339950;28;82567;-94
2023/06/24 00:18:05;;;;;;;;;;;21.80;95.40;21.70;100128.00;;;;340917;28;92340;-95
2023/06/24 00:18:19;;;;;;;;;;;21.80;95.40;21.70;100125.00;;;;338428;28;82655;-95
2023/06/24 00:18:31;;;;;;;;;;;21.80;95.40;21.80;100130.00;;;;340553;28;92433;-95
2023/06/24 00:18:44;;;;;;;;;;;21.80;95.40;21.80;100123.00;;;;341243;28;82693;-95
2023/06/24 00:19:00;;;;;;;;;;;21.80;95.40;21.80;100126.00;;;;341656;28;94108;-95
2023/06/24 00:19:12;;;;;;;;;;;21.80;95.50;21.80;100131.00;;;;339567;28;82616;-95
2023/06/24 00:19:25;;;;;;;;;;;21.80;95.60;21.80;100128.00;;;;338749;28;95091;-94
2023/06/24 00:19:38;;;;;;;;;;;21.80;95.50;21.80;100123.00;;;;341123;28;82551;-95
2023/06/24 00:19:54;;;;;;;;;;;21.80;95.50;21.80;100123.00;;;;339190;28;94139;-95
2023/06/24 00:20:10;;;;;;;;;;;21.80;95.50;21.80;100126.00;;;;340886;28;82599;-95
2023/06/24 00:20:23;;;;;;;;;;;21.80;95.50;21.80;100120.00;;;;340295;28;94687;-95
2023/06/24 00:20:35;;;;;;;;;;;21.70;95.50;21.80;100126.00;;;;339676;28;82643;-94
2023/06/24 00:20:49;;;;;;;;;;;21.70;95.40;21.80;100129.00;;;;338889;28;92404;-95
2023/06/24 00:21:02;;;;;;;;;;;21.70;95.40;21.80;100126.00;;;;339584;28;82591;-93
2023/06/24 00:21:16;;;;;;;;;;;21.70;95.50;21.80;100127.00;;;;338685;28;92380;-95
2023/06/24 00:21:29;;;;;;;;;;;21.70;95.50;21.80;100118.00;;;;339478;28;82567;-94
2023/06/24 00:21:42;;;;;;;;;;;21.70;95.40;21.80;100126.00;;;;338658;28;94289;-95
2023/06/24 00:21:56;;;;;;;;;;;21.70;95.70;21.90;100121.00;;;;340797;28;82581;-95
2023/06/24 00:22:10;;;;;;;;;;;21.70;95.40;21.80;100122.00;;;;338087;28;92296;-94
2023/06/24 00:22:26;;;;;;;;;;;21.70;95.50;21.70;100122.00;;;;340585;28;82290;-96
2023/06/24 00:22:48;;;;;;;;;;;21.70;95.50;21.80;100127.00;;;;340739;28;94837;-95
2023/06/24 00:23:00;;;;;;;;;;;21.70;95.50;21.80;100113.00;;;;339575;28;82591;-95
2023/06/24 00:23:14;;;;;;;;;;;21.70;95.50;21.70;100129.00;;;;338595;28;94024;-95
2023/06/24 00:23:26;;;;;;;;;;;21.70;95.50;21.70;100122.00;;;;340898;28;82527;-95
2023/06/24 00:23:38;;;;;;;;;;;21.70;95.60;21.70;100124.00;;;;340348;28;94860;-95
2023/06/24 00:23:51;;;;;;;;;;;21.70;95.70;21.70;100124.00;;;;341243;28;82643;-95
2023/06/24 00:24:05;;;;;;;;;;;21.70;95.60;21.80;100126.00;;;;337552;28;95739;-94
2023/06/24 00:24:21;;;;;;;;;;;21.70;95.60;21.80;100117.00;;;;338357;28;82539;-94
2023/06/24 00:24:33;;;;;;;;;;;21.70;95.60;21.80;100122.00;;;;338856;28;94122;-94
2023/06/24 00:24:46;;;;;;;;;;;21.70;95.60;21.70;100127.00;;;;338403;28;82582;-95
2023/06/24 00:25:00;;;;;;;;;;;21.70;95.60;21.70;100130.00;;;;338210;28;91696;-95
2023/06/24 00:25:12;;;;;;;;;;;21.70;95.90;21.70;100128.00;;;;339407;28;82561;-95
2023/06/24 00:25:24;;;;;;;;;;;21.70;95.60;21.70;100119.00;;;;336547;28;95134;-94
2023/06/24 00:25:36;;;;;;;;;;;21.70;95.60;21.70;100124.00;;;;340947;28;82625;-94
2023/06/24 00:25:48;;;;;;;;;;;21.70;95.60;21.80;100123.00;;;;338805;28;94075;-95
2023/06/24 00:26:01;;;;;;;;;;;21.70;95.60;21.80;100122.00;;;;342421;28;82537;-94
2023/06/24 00:26:13;;;;;;;;;;;21.70;95.70;21.70;100113.00;;;;341223;28;95388;-95
2023/06/24 00:26:25;;;;;;;;;;;21.70;95.70;21.80;100121.00;;;;339652;28;82631;-95
2023/06/24 00:26:37;;;;;;;;;;;21.70;95.70;21.70;100124.00;;;;340161;28;94039;-94
2023/06/24 00:26:49;;;;;;;;;;;21.70;95.70;21.70;100130.00;;;;339799;28;82587;-94
2023/06/24 00:27:01;;;;;;;;;;;21.70;95.70;21.70;100120.00;;;;340622;28;92890;-95
2023/06/24 00:27:15;;;;;;;;;;;21.70;95.70;21.70;100126.00;;;;340962;28;82538;-94
2023/06/24 00:27:27;;;;;;;;;;;21.70;95.70;21.80;100124.00;;;;339958;28;94642;-94
2023/06/24 00:27:39;;;;;;;;;;;21.70;95.70;21.80;100122.00;;;;342383;28;82558;-95
2023/06/24 00:27:51;;;;;;;;;;;21.70;95.70;21.70;100128.00;;;;340058;28;94174;-95
2023/06/24 00:28:04;;;;;;;;;;;21.70;95.70;21.80;100122.00;;;;340888;28;82602;-95
2023/06/24 00:28:16;;;;;;;;;;;21.70;95.70;21.80;100127.00;;;;343107;28;94290;-95
2023/06/24 00:28:29;;;;;;;;;;;21.70;95.70;21.80;100117.00;;;;341105;28;82544;-94
2023/06/24 00:28:41;;;;;;;;;;;21.70;95.70;21.80;100128.00;;;;340422;28;94219;-95
2023/06/24 00:28:53;;;;;;;;;;;21.70;95.70;21.80;100122.00;;;;342341;28;82604;-94
2023/06/24 00:29:06;;;;;;;;;;;21.70;95.70;21.80;100129.00;;;;340474;28;93361;-95
2023/06/24 00:29:18;;;;;;;;;;;21.70;95.70;21.80;100126.00;;;;339798;28;82617;-94
2023/06/24 00:29:30;;;;;;;;;;;21.70;95.70;21.80;100113.00;;;;341599;28;93367;-94
2023/06/24 00:29:42;;;;;;;;;;;21.60;95.70;21.80;100125.00;;;;342533;28;82586;-95
2023/06/24 00:29:54;;;;;;;;;;;21.70;95.80;21.80;100123.00;;;;341420;28;92165;-94
2023/06/24 00:30:07;;;;;;;;;;;21.70;95.80;21.70;100123.00;;;;341374;28;82675;-94
2023/06/24 00:30:22;;;;;;;;;;;21.70;95.80;21.70;100127.00;;;;338225;28;93282;-95
2023/06/24 00:30:35;;;;;;;;;;;21.70;95.80;21.70;100122.00;;;;340025;28;82399;-95
2023/06/24 00:30:48;;;;;;;;;;;21.60;95.70;21.50;100130.00;;;;340491;28;92393;-95
2023/06/24 00:31:01;;;;;;;;;;;21.70;95.80;21.60;100130.00;;;;339537;28;82539;-95
2023/06/24 00:31:13;;;;;;;;;;;21.60;95.70;21.60;100127.00;;;;337657;28;94660;-95
2023/06/24 00:31:26;;;;;;;;;;;21.60;95.70;21.60;100124.00;;;;341064;28;82572;-95
2023/06/24 00:31:38;;;;;;;;;;;21.60;95.80;21.70;100126.00;;;;338917;28;94808;-96
2023/06/24 00:31:50;;;;;;;;;;;21.60;95.80;21.70;100131.00;;;;341489;28;82534;-94
2023/06/24 00:32:05;;;;;;;;;;;21.60;95.80;21.80;100125.00;;;;341517;28;94700;-95
2023/06/24 00:32:17;;;;;;;;;;;21.60;95.80;21.80;100130.00;;;;339962;28;82587;-95
2023/06/24 00:32:30;;;;;;;;;;;21.60;95.80;21.70;100125.00;;;;339105;28;93307;-95
2023/06/24 00:32:42;;;;;;;;;;;21.60;95.80;21.70;100127.00;;;;340868;28;82603;-95
2023/06/24 00:32:54;;;;;;;;;;;21.60;95.80;21.60;100120.00;;;;339171;28;94396;-96
2023/06/24 00:33:09;;;;;;;;;;;21.60;95.80;21.70;100131.00;;;;341217;28;82641;-94
2023/06/24 00:33:22;;;;;;;;;;;21.60;95.80;21.70;100122.00;;;;340737;28;92237;-94
2023/06/24 00:33:35;;;;;;;;;;;21.60;95.80;21.70;100127.00;;;;341169;28;82520;-95
2023/06/24 00:33:49;;;;;;;;;;;21.60;95.80;21.70;100127.00;;;;340608;28;95543;-94
2023/06/24 00:34:02;;;;;;;;;;;21.60;95.90;21.50;100130.00;;;;341743;28;82583;-95
2023/06/24 00:34:14;;;;;;;;;;;21.60;96.00;21.60;100127.00;;;;341856;28;94427;-94
2023/06/24 00:34:27;;;;;;;;;;;21.60;96.00;21.50;100126.00;;;;341097;28;82542;-94
2023/06/24 00:34:43;;;;;;;;;;;21.60;96.00;21.60;100124.00;;;;340562;28;94320;-94
2023/06/24 00:34:58;;;;;;;;;;;21.60;95.90;21.70;100122.00;;;;339805;28;83453;-94
2023/06/24 00:35:12;;;;;;;;;;;21.60;96.00;21.70;100127.00;;;;340035;28;92420;-94
2023/06/24 00:35:26;;;;;;;;;;;21.60;96.00;21.60;100121.00;;;;342412;28;82598;-94
2023/06/24 00:35:39;;;;;;;;;;;21.60;96.10;21.60;100124.00;;;;340371;28;93506;-95
2023/06/24 00:35:54;;;;;;;;;;;21.60;96.10;21.60;100127.00;;;;341144;28;82601;-95
2023/06/24 00:36:11;;;;;;;;;;;21.60;96.10;21.60;100129.00;;;;340469;28;91953;-94
2023/06/24 00:36:26;;;;;;;;;;;21.60;96.10;21.60;100125.00;;;;342651;28;82628;-95
2023/06/24 00:36:39;;;;;;;;;;;21.60;96.10;21.50;100122.00;;;;340091;28;94552;-95
2023/06/24 00:36:52;;;;;;;;;;;21.50;96.20;21.50;100130.00;;;;339936;28;82475;-94
2023/06/24 00:37:04;;;;;;;;;;;21.50;96.10;21.50;100121.00;;;;341824;28;95815;-94
2023/06/24 00:37:17;;;;;;;;;;;21.50;96.20;21.50;100113.00;;;;340168;28;82578;-94
2023/06/24 00:37:30;;;;;;;;;;;21.50;96.20;21.60;100125.00;;;;340395;28;92448;-95
2023/06/24 00:37:45;;;;;;;;;;;21.50;96.10;21.60;100127.00;;;;339650;28;82590;-94
2023/06/24 00:37:58;;;;;;;;;;;21.50;96.20;21.60;100124.00;;;;341777;28;94525;-94
2023/06/24 00:38:20;;;;;;;;;;;21.60;96.30;21.60;100123.00;;;;341166;28;82537;-95
2023/06/24 00:38:32;;;;;;;;;;;21.50;96.20;21.50;100119.00;;;;341910;28;93998;-95
2023/06/24 00:38:44;;;;;;;;;;;21.50;96.30;21.60;100122.00;;;;342554;28;82600;-95
2023/06/24 00:38:56;;;;;;;;;;;21.50;96.30;21.60;100129.00;;;;341677;28;94712;-95
2023/06/24 00:39:10;;;;;;;;;;;21.50;96.20;21.60;100121.00;;;;340984;28;82565;-95
2023/06/24 00:39:23;;;;;;;;;;;21.50;96.30;21.60;100118.00;;;;340208;28;94941;-95
2023/06/24 00:39:36;;;;;;;;;;;21.50;96.30;21.60;100124.00;;;;342756;28;82546;-95
2023/06/24 00:39:52;;;;;;;;;;;21.50;96.30;21.60;100125.00;;;;341631;28;92233;-95
2023/06/24 00:40:14;;;;;;;;;;;21.50;96.20;21.60;100117.00;;;;340811;28;82565;-95
2023/06/24 00:40:29;;;;;;;;;;;21.50;96.20;21.60;100123.00;;;;342760;28;93859;-95
2023/06/24 00:40:41;;;;;;;;;;;21.60;96.30;21.60;100119.00;;;;342222;28;82450;-95
2023/06/24 00:40:53;;;;;;;;;;;21.50;96.40;21.60;100130.00;;;;341635;28;93368;-95
2023/06/24 00:41:07;;;;;;;;;;;21.50;96.30;21.60;100115.00;;;;341212;28;82599;-95
2023/06/24 00:41:19;;;;;;;;;;;21.50;96.40;21.60;100118.00;;;;338885;28;92207;-95
2023/06/24 00:41:35;;;;;;;;;;;21.50;96.40;21.60;100121.00;;;;342838;28;82434;-94
2023/06/24 00:41:49;;;;;;;;;;;21.50;96.50;21.60;100122.00;;;;341835;28;93235;-95
2023/06/24 00:42:01;;;;;;;;;;;21.50;96.40;21.60;100119.00;;;;341104;28;82595;-95
2023/06/24 00:42:14;;;;;;;;;;;21.50;96.30;21.60;100117.00;;;;342735;28;94632;-95
2023/06/24 00:42:26;;;;;;;;;;;21.50;96.40;21.60;100119.00;;;;339814;28;82465;-95
2023/06/24 00:42:39;;;;;;;;;;;21.50;96.40;21.50;100111.00;;;;341517;28;94193;-95
2023/06/24 00:42:51;;;;;;;;;;;21.50;96.40;21.50;100127.00;;;;343909;28;82387;-95
2023/06/24 00:43:11;;;;;;;;;;;21.50;96.40;21.50;100114.00;;;;341727;28;93382;-95
2023/06/24 00:43:23;;;;;;;;;;;21.50;96.50;21.50;100118.00;;;;340969;28;82540;-94
2023/06/24 00:43:36;;;;;;;;;;;21.50;96.50;21.50;100120.00;;;;341475;28;95538;-94
2023/06/24 00:43:49;;;;;;;;;;;21.50;96.50;21.50;100116.00;;;;342942;28;82452;-96
2023/06/24 00:44:03;;;;;;;;;;;21.50;96.50;21.50;100119.00;;;;341796;28;93816;-95
2023/06/24 00:44:17;;;;;;;;;;;21.40;96.50;21.50;100113.00;;;;341087;28;82507;-95
2023/06/24 00:44:30;;;;;;;;;;;21.50;96.50;21.40;100118.00;;;;338990;28;93317;-95
2023/06/24 00:44:42;;;;;;;;;;;21.40;96.50;21.40;100118.00;;;;341011;28;82591;-95
2023/06/24 00:44:54;;;;;;;;;;;21.40;96.50;21.50;100111.00;;;;340218;28;92155;-95
2023/06/24 00:45:07;;;;;;;;;;;21.40;96.60;21.50;100109.00;;;;342462;28;82591;-95
2023/06/24 00:45:19;;;;;;;;;;;21.40;96.70;21.40;100111.00;;;;340305;28;94661;-95
2023/06/24 00:45:32;;;;;;;;;;;21.40;96.60;21.40;100113.00;;;;343696;28;82575;-95
2023/06/24 00:45:47;;;;;;;;;;;21.40;96.60;21.30;100112.00;;;;339341;28;92459;-96
2023/06/24 00:46:00;;;;;;;;;;;21.40;96.70;21.40;100116.00;;;;342401;28;82531;-96
2023/06/24 00:46:13;;;;;;;;;;;21.40;96.70;21.40;100113.00;;;;340336;28;93277;-95
2023/06/24 00:46:26;;;;;;;;;;;21.40;96.60;21.50;100109.00;;;;341130;28;82537;-94
2023/06/24 00:46:39;;;;;;;;;;;21.40;96.60;21.40;100107.00;;;;338798;28;92302;-94
2023/06/24 00:46:53;;;;;;;;;;;21.40;96.60;21.50;100119.00;;;;340878;28;82588;-94
2023/06/24 00:47:08;;;;;;;;;;;21.40;96.60;21.50;100123.00;;;;340167;28;94000;-95
2023/06/24 00:47:20;;;;;;;;;;;21.30;96.60;21.50;100113.00;;;;342148;28;82568;-96
2023/06/24 00:47:32;;;;;;;;;;;21.30;96.60;21.40;100117.00;;;;340043;28;94675;-94
2023/06/24 00:47:46;;;;;;;;;;;21.30;96.70;21.50;100121.00;;;;341117;28;82419;-94
2023/06/24 00:48:00;;;;;;;;;;;21.30;96.60;21.50;100119.00;;;;339086;28;94608;-95
2023/06/24 00:48:13;;;;;;;;;;;21.30;96.70;21.40;100115.00;;;;341127;28;82527;-95
2023/06/24 00:48:27;;;;;;;;;;;21.30;96.70;21.50;100117.00;;;;340276;28;95158;-95
2023/06/24 00:48:40;;;;;;;;;;;21.30;96.70;21.40;100112.00;;;;342304;28;82596;-95
2023/06/24 00:48:56;;;;;;;;;;;21.30;96.70;21.50;100116.00;;;;339040;28;95563;-95
2023/06/24 00:49:09;;;;;;;;;;;21.30;96.70;21.50;100114.00;;;;340933;28;82647;-93
2023/06/24 00:49:29;;;;;;;;;;;21.30;96.60;21.40;100113.00;;;;340310;28;94923;-94
2023/06/24 00:49:45;;;;;;;;;;;21.40;96.90;21.30;100120.00;;;;341142;28;82525;-95
2023/06/24 00:49:58;;;;;;;;;;;21.30;96.80;21.40;100123.00;;;;340452;28;93468;-94
2023/06/24 00:50:12;;;;;;;;;;;21.30;96.80;21.40;100107.00;;;;339402;28;82588;-95
2023/06/24 00:50:24;;;;;;;;;;;21.30;96.80;21.30;100118.00;;;;340457;28;92233;-94
2023/06/24 00:50:42;;;;;;;;;;;21.40;96.80;21.30;100110.00;;;;344330;28;82570;-94
2023/06/24 00:50:54;;;;;;;;;;;21.30;96.80;21.30;100117.00;;;;341768;28;95268;-95
2023/06/24 00:51:06;;;;;;;;;;;21.30;96.80;21.30;100107.00;;;;342336;28;82767;-94
2023/06/24 00:51:21;;;;;;;;;;;21.30;96.80;21.30;100122.00;;;;340276;28;93760;-95
2023/06/24 00:51:36;;;;;;;;;;;21.30;96.70;21.30;100107.00;;;;341291;28;82562;-95
2023/06/24 00:51:50;;;;;;;;;;;21.30;96.80;21.30;100119.00;;;;339054;28;94903;-96
2023/06/24 00:52:05;;;;;;;;;;;21.30;96.80;21.30;100108.00;;;;340054;28;82520;-94
2023/06/24 00:52:20;;;;;;;;;;;21.30;96.90;21.40;100113.00;;;;341472;28;92974;-95
2023/06/24 00:52:36;;;;;;;;;;;21.40;96.90;21.30;100103.00;;;;341482;28;82583;-95
2023/06/24 00:52:49;;;;;;;;;;;21.30;96.90;21.30;100110.00;;;;340165;28;94070;-95
2023/06/24 00:53:01;;;;;;;;;;;21.30;96.90;21.30;100108.00;;;;342482;28;82578;-95
2023/06/24 00:53:14;;;;;;;;;;;21.30;96.90;21.30;100115.00;;;;340020;28;94728;-95
2023/06/24 00:53:26;;;;;;;;;;;21.30;96.90;21.30;100116.00;;;;343749;28;82467;-95
2023/06/24 00:53:38;;;;;;;;;;;21.30;97.00;21.30;100109.00;;;;341561;28;94111;-95
2023/06/24 00:53:51;;;;;;;;;;;21.30;96.90;21.30;100113.00;;;;341020;28;82620;-94
2023/06/24 00:54:04;;;;;;;;;;;21.30;96.90;21.30;100121.00;;;;340405;28;93321;-95
2023/06/24 00:54:17;;;;;;;;;;;21.30;96.90;21.30;100113.00;;;;342806;28;82434;-95
2023/06/24 00:54:31;;;;;;;;;;;21.30;97.00;21.30;100116.00;;;;342036;28;92363;-94
2023/06/24 00:54:44;;;;;;;;;;;21.30;96.90;21.30;100109.00;;;;341432;28;82588;-95
2023/06/24 00:55:15;;;;;;;;;;;21.30;96.90;21.40;100106.00;;;;338089;28;94134;-96
2023/06/24 00:55:28;;;;;;;;;;;21.30;97.00;21.30;100107.00;;;;339949;28;82423;-95
2023/06/24 00:55:41;;;;;;;;;;;21.30;97.00;21.40;100113.00;;;;339090;28;93358;-95
2023/06/24 00:56:02;;;;;;;;;;;21.30;96.90;21.40;100104.00;;;;342562;28;82624;-95
2023/06/24 00:56:18;;;;;;;;;;;21.30;96.90;21.40;100107.00;;;;339281;28;92987;-95
2023/06/24 00:56:33;;;;;;;;;;;21.30;96.90;21.40;100105.00;;;;339512;28;82629;-95
2023/06/24 00:56:49;;;;;;;;;;;21.30;97.00;21.30;100109.00;;;;340453;28;95016;-95
2023/06/24 00:57:02;;;;;;;;;;;21.30;97.00;21.30;100115.00;;;;341152;28;82626;-95
2023/06/24 00:57:14;;;;;;;;;;;21.20;96.90;21.30;100113.00;;;;341656;28;93402;-95
2023/06/24 00:57:28;;;;;;;;;;;21.20;97.00;21.30;100107.00;;;;342427;28;82617;-95
2023/06/24 00:57:42;;;;;;;;;;;21.20;97.20;21.30;100105.00;;;;342918;28;94138;-95
2023/06/24 00:57:55;;;;;;;;;;;21.20;97.10;21.30;100102.00;;;;341279;28;82572;-95
2023/06/24 00:58:16;;;;;;;;;;;21.20;97.10;21.40;100113.00;;;;341615;28;93205;-95
2023/06/24 00:58:32;;;;;;;;;;;21.20;97.00;21.40;100105.00;;;;341153;28;82597;-95
2023/06/24 00:58:47;;;;;;;;;;;21.20;97.00;21.40;100108.00;;;;340476;28;94667;-95
2023/06/24 00:59:02;;;;;;;;;;;21.20;97.00;21.30;100117.00;;;;342591;28;82754;-95
2023/06/24 00:59:22;;;;;;;;;;;21.20;97.10;21.20;100111.00;;;;341765;28;92259;-95
2023/06/24 00:59:36;;;;;;;;;;;21.20;97.10;21.20;100107.00;;;;342521;28;82680;-95
2023/06/24 00:59:53;;;;;;;;;;;21.30;97.20;21.20;100104.00;;;;341476;28;94182;-95
2023/06/24 01:00:11;;;;;;;;;;;21.20;97.10;21.20;100106.00;;;;340978;28;82600;-95
2023/06/24 01:00:34;;;;;;;;;;;21.20;97.10;21.20;100109.00;;;;340379;28;92402;-95
2023/06/24 01:00:48;;;;;;;;;;;21.20;97.20;21.20;100096.00;;;;339867;28;82581;-96
2023/06/24 01:01:01;;;;;;;;;;;21.20;97.20;21.30;100104.00;;;;340084;28;95208;-95
2023/06/24 01:01:14;;;;;;;;;;;21.20;97.20;21.20;100103.00;;;;339446;28;82627;-94
2023/06/24 01:01:33;;;;;;;;;;;21.20;97.20;21.20;100101.00;;;;340072;28;92163;-95
2023/06/24 01:01:45;;;;;;;;;;;21.20;97.10;21.10;100103.00;;;;340858;28;82724;-95
2023/06/24 01:02:01;;;;;;;;;;;21.20;97.20;21.20;100098.00;;;;339985;28;93464;-95
2023/06/24 01:02:13;;;;;;;;;;;21.20;97.20;21.20;100108.00;;;;340495;28;82551;-95
2023/06/24 01:02:27;;;;;;;;;;;21.20;97.30;21.20;100107.00;;;;339701;28;94521;-94
2023/06/24 01:02:42;;;;;;;;;;;21.10;97.30;21.10;100105.00;;;;338656;28;82441;-95
2023/06/24 01:02:54;;;;;;;;;;;21.10;97.30;21.10;100106.00;;;;339955;28;93491;-96
2023/06/24 01:03:06;;;;;;;;;;;21.10;97.30;21.20;100108.00;;;;340649;28;82679;-95
2023/06/24 01:03:18;;;;;;;;;;;21.10;97.30;21.20;100103.00;;;;341024;28;95960;-95
2023/06/24 01:03:30;;;;;;;;;;;21.10;97.30;21.20;100100.00;;;;340613;28;82585;-95
2023/06/24 01:03:43;;;;;;;;;;;21.10;97.30;21.20;100100.00;;;;338613;28;93383;-95
2023/06/24 01:03:56;;;;;;;;;;;21.10;97.30;21.10;100095.00;;;;342603;28;82704;-95
2023/06/24 01:04:08;;;;;;;;;;;21.10;97.30;21.10;100096.00;;;;338528;28;94598;-95
2023/06/24 01:04:19;;;;;;;;;;;21.10;97.30;21.10;100096.00;;;;340753;28;82623;-96
2023/06/24 01:04:33;;;;;;;;;;;21.10;97.40;21.10;100099.00;;;;341253;28;93803;-94
2023/06/24 01:04:46;;;;;;;;;;;21.10;97.40;21.10;100103.00;;;;342195;28;82537;-95
2023/06/24 01:04:58;;;;;;;;;;;21.10;97.40;21.10;100097.00;;;;338500;28;94268;-95
2023/06/24 01:05:11;;;;;;;;;;;21.10;97.40;21.10;100091.00;;;;340640;28;82588;-94
2023/06/24 01:05:23;;;;;;;;;;;21.10;97.30;21.10;100101.00;;;;341389;28;96750;-95
2023/06/24 01:05:36;;;;;;;;;;;21.10;97.30;21.10;100095.00;;;;339402;28;82582;-95
2023/06/24 01:05:48;;;;;;;;;;;21.10;97.30;21.10;100105.00;;;;339794;28;93585;-95
2023/06/24 01:06:00;;;;;;;;;;;21.10;97.30;21.20;100093.00;;;;340461;28;82564;-95
2023/06/24 01:06:12;;;;;;;;;;;21.10;97.30;21.10;100097.00;;;;338701;28;95671;-95
2023/06/24 01:06:24;;;;;;;;;;;21.10;97.40;21.10;100106.00;;;;339894;28;82601;-95
2023/06/24 01:06:36;;;;;;;;;;;21.10;97.40;21.10;100095.00;;;;338731;28;94191;-94
2023/06/24 01:06:49;;;;;;;;;;;21.10;97.40;21.10;100090.00;;;;339279;28;82573;-94
2023/06/24 01:07:01;;;;;;;;;;;21.10;97.40;21.10;100101.00;;;;341605;28;92266;-95
2023/06/24 01:07:14;;;;;;;;;;;21.10;97.30;21.10;100087.00;;;;340813;28;82691;-95